Jackson (JAN/KJAN)

Map

Destinations

Information

Location
Jackson, Mississippi
Local Time
17:30 / 5:30 pm
GMT Time
22:30 / 10:30 pm
Gates
Unassigned
No FAA reported delays
METAR KJAN 272154Z 17009KT 10SM -RA FEW065 SCT080 BKN100 24/18 A2986 RMK AO2 RAB53 SLP106 P0000 T02440178
TAF KJAN 271741Z 2718/2818 19014G22KT P6SM SCT035 BKN050 FM271900 20014G22KT P6SM VCTS SCT040CB FM280100 18005KT P6SM VCSH BKN100 FM280900 19003KT 4SM BR OVC009
  • No charts available